createdAt,value
2018-12-01T00:01:52.574Z,8.10
2018-12-01T00:04:24.930Z,8.10
2018-12-01T00:06:57.105Z,8.10
2018-12-01T00:09:29.704Z,7.90
2018-12-01T00:12:01.841Z,7.90
2018-12-01T00:14:34.449Z,7.60
2018-12-01T00:17:06.816Z,7.10
2018-12-01T00:19:38.913Z,7.10
2018-12-01T00:22:11.167Z,7.10
2018-12-01T00:24:43.562Z,7.20
2018-12-01T00:27:15.876Z,7.00
2018-12-01T00:29:48.512Z,7.00
2018-12-01T00:32:20.850Z,7.20
2018-12-01T00:34:52.962Z,6.70
2018-12-01T00:37:25.583Z,6.60
2018-12-01T00:39:57.991Z,6.70
2018-12-01T00:42:30.149Z,6.40
2018-12-01T00:45:03.075Z,6.40
2018-12-01T00:47:35.877Z,6.40
2018-12-01T00:50:10.446Z,6.30
2018-12-01T00:52:42.769Z,6.30
2018-12-01T00:55:15.819Z,6.40
2018-12-01T00:57:47.917Z,6.10
2018-12-01T01:00:21.911Z,6.00
2018-12-01T01:02:57.460Z,6.00
2018-12-01T01:05:30.368Z,6.10
2018-12-01T01:08:03.208Z,6.10
2018-12-01T01:10:36.188Z,6.00
2018-12-01T01:13:08.467Z,6.00
2018-12-01T01:15:41.304Z,6.00
2018-12-01T01:18:13.825Z,5.90
2018-12-01T01:20:46.301Z,6.10
2018-12-01T01:23:18.436Z,6.00
2018-12-01T01:25:50.444Z,6.10
2018-12-01T01:28:22.997Z,6.00
2018-12-01T01:30:55.586Z,6.10
2018-12-01T01:33:30.527Z,6.00
2018-12-01T01:36:02.812Z,5.90
2018-12-01T01:38:35.162Z,5.90
2018-12-01T01:41:09.075Z,6.10
2018-12-01T01:43:41.260Z,6.10
2018-12-01T01:46:13.500Z,6.10
2018-12-01T01:48:45.854Z,6.00
2018-12-01T01:51:18.044Z,6.10
2018-12-01T01:53:50.258Z,6.20
2018-12-01T01:56:22.497Z,6.00
2018-12-01T01:58:54.837Z,6.10
2018-12-01T02:01:27.011Z,6.00
2018-12-01T02:03:59.273Z,6.00
2018-12-01T02:06:31.574Z,6.10
2018-12-01T02:09:04.205Z,6.00
2018-12-01T02:11:36.363Z,6.20
2018-12-01T02:14:08.610Z,6.00
2018-12-01T02:16:41.149Z,6.20
2018-12-01T02:19:13.318Z,6.00
2018-12-01T02:21:45.861Z,6.00
2018-12-01T02:24:18.157Z,5.90
2018-12-01T02:26:50.432Z,6.00
2018-12-01T02:29:22.464Z,6.20
2018-12-01T02:31:55.258Z,6.00
2018-12-01T02:34:27.437Z,6.00
2018-12-01T02:36:59.632Z,6.00
2018-12-01T02:39:31.864Z,5.80
2018-12-01T02:42:04.080Z,5.70
2018-12-01T02:44:45.712Z,5.60
2018-12-01T02:47:17.867Z,5.70
2018-12-01T02:49:50.148Z,5.80
2018-12-01T02:52:22.522Z,5.60
2018-12-01T02:54:54.893Z,5.70
2018-12-01T02:57:27.492Z,5.80
2018-12-01T03:00:00.122Z,5.80
2018-12-01T03:02:32.658Z,5.60
2018-12-01T03:05:05.189Z,5.70
2018-12-01T03:07:37.346Z,5.60
2018-12-01T03:10:15.491Z,5.60
2018-12-01T03:12:47.753Z,5.80
2018-12-01T03:15:20.782Z,5.60
2018-12-01T03:17:53.921Z,5.50
2018-12-01T03:20:26.548Z,5.60
2018-12-01T03:22:59.716Z,5.30
2018-12-01T03:25:32.263Z,5.30
2018-12-01T03:28:04.613Z,5.40
2018-12-01T03:30:37.198Z,5.40
2018-12-01T03:33:09.572Z,5.40
2018-12-01T03:35:42.034Z,5.40
2018-12-01T03:38:14.134Z,5.40
2018-12-01T03:40:49.482Z,5.40
2018-12-01T03:43:21.696Z,5.20
2018-12-01T03:45:53.915Z,5.40
2018-12-01T03:48:26.791Z,5.40
2018-12-01T03:50:59.318Z,5.20
2018-12-01T03:53:31.600Z,5.00
2018-12-01T03:56:03.786Z,5.20
2018-12-01T03:58:36.220Z,5.20
2018-12-01T04:01:08.580Z,5.10
2018-12-01T04:03:40.763Z,5.20
2018-12-01T04:06:12.857Z,5.40
2018-12-01T04:08:45.267Z,5.00
2018-12-01T04:11:17.605Z,5.40
2018-12-01T04:13:50.464Z,5.30
2018-12-01T04:16:22.780Z,5.40
2018-12-01T04:18:55.028Z,5.30
2018-12-01T04:21:27.434Z,5.40
2018-12-01T04:24:04.351Z,5.20
2018-12-01T04:26:36.913Z,5.30
2018-12-01T04:29:09.246Z,5.40
2018-12-01T04:31:41.073Z,5.40
2018-12-01T04:34:13.490Z,5.30
2018-12-01T04:36:45.900Z,5.30
2018-12-01T04:39:18.033Z,5.50
2018-12-01T04:41:50.318Z,5.30
2018-12-01T04:44:22.441Z,5.20
2018-12-01T04:46:55.025Z,5.40
2018-12-01T04:49:26.897Z,5.40
2018-12-01T04:51:59.502Z,5.50
2018-12-01T04:54:32.770Z,5.40
2018-12-01T04:57:05.089Z,5.30
2018-12-01T04:59:37.469Z,5.20
2018-12-01T05:02:09.964Z,5.30
2018-12-01T05:04:42.278Z,5.40
2018-12-01T05:07:14.005Z,5.40
2018-12-01T05:09:46.354Z,5.40
2018-12-01T05:12:19.052Z,5.40
2018-12-01T05:14:51.324Z,5.40
2018-12-01T05:17:23.688Z,5.30
2018-12-01T05:19:55.753Z,5.20
2018-12-01T05:22:27.897Z,5.20
2018-12-01T05:24:59.660Z,5.30
2018-12-01T05:27:32.089Z,5.40
2018-12-01T05:30:04.324Z,5.50
2018-12-01T05:32:36.856Z,5.30
2018-12-01T05:35:39.557Z,5.50
2018-12-01T05:38:11.804Z,5.40
2018-12-01T05:40:44.369Z,5.50
2018-12-01T05:43:16.537Z,5.40
2018-12-01T05:45:49.678Z,5.40
2018-12-01T05:48:22.200Z,5.40
2018-12-01T05:50:54.570Z,5.50
2018-12-01T05:53:27.196Z,5.30
2018-12-01T05:55:59.480Z,5.40
2018-12-01T05:58:31.820Z,5.40
2018-12-01T06:01:04.230Z,5.20
2018-12-01T06:03:37.216Z,5.30
2018-12-01T06:06:09.602Z,5.40
2018-12-01T06:08:41.761Z,5.30
2018-12-01T06:11:13.921Z,5.40
2018-12-01T06:13:46.285Z,5.40
2018-12-01T06:16:18.724Z,5.30
2018-12-01T06:18:51.373Z,5.30
2018-12-01T06:21:23.980Z,5.30
2018-12-01T06:23:56.255Z,5.40
2018-12-01T06:26:28.663Z,5.40
2018-12-01T06:29:01.060Z,5.50
2018-12-01T06:31:33.507Z,5.40
2018-12-01T06:34:05.566Z,5.60
2018-12-01T06:36:38.134Z,5.60
2018-12-01T06:39:10.764Z,5.40
2018-12-01T06:41:43.074Z,5.40
2018-12-01T06:44:15.404Z,5.40
2018-12-01T06:46:48.579Z,5.30
2018-12-01T06:49:21.993Z,5.50
2018-12-01T06:51:54.356Z,5.40
2018-12-01T06:54:26.873Z,5.30
2018-12-01T06:56:59.167Z,5.40
2018-12-01T06:59:31.528Z,5.40
2018-12-01T07:02:03.863Z,5.40
2018-12-01T07:04:36.022Z,5.30
2018-12-01T07:07:08.145Z,5.40
2018-12-01T07:09:40.700Z,5.50
2018-12-01T07:12:13.104Z,5.40
2018-12-01T07:14:45.497Z,5.40
2018-12-01T07:17:17.890Z,5.40
2018-12-01T07:19:50.142Z,5.30
2018-12-01T07:22:22.770Z,5.40
2018-12-01T07:24:55.070Z,5.40
2018-12-01T07:27:27.607Z,5.40
2018-12-01T07:30:01.243Z,5.50
2018-12-01T07:32:33.576Z,5.50
2018-12-01T07:35:06.377Z,5.40
2018-12-01T07:37:38.813Z,5.40
2018-12-01T07:40:13.450Z,5.50
2018-12-01T07:42:45.944Z,5.30
2018-12-01T07:45:18.972Z,5.40
2018-12-01T07:47:51.293Z,5.50
2018-12-01T07:50:24.319Z,5.60
2018-12-01T07:52:57.273Z,5.30
2018-12-01T07:55:29.811Z,5.40
2018-12-01T07:58:02.463Z,5.30
2018-12-01T08:00:34.656Z,5.30
2018-12-01T08:03:06.951Z,5.50
2018-12-01T08:05:39.323Z,5.40
2018-12-01T08:08:11.488Z,5.40
2018-12-01T08:10:43.913Z,5.50
2018-12-01T08:13:16.777Z,5.50
2018-12-01T08:15:49.495Z,5.50
2018-12-01T08:18:21.684Z,5.50
2018-12-01T08:20:54.085Z,5.40
2018-12-01T08:23:26.437Z,5.70
2018-12-01T08:25:58.842Z,5.60
2018-12-01T08:28:31.010Z,5.60
2018-12-01T08:31:03.487Z,5.70
2018-12-01T08:33:35.722Z,5.50
2018-12-01T08:36:08.277Z,5.70
2018-12-01T08:38:40.779Z,5.70
2018-12-01T08:41:13.299Z,5.70
2018-12-01T08:43:45.762Z,5.80
2018-12-01T08:46:18.430Z,5.70
2018-12-01T08:48:50.550Z,5.70
2018-12-01T08:51:23.142Z,5.70
2018-12-01T08:53:55.551Z,5.60
2018-12-01T08:56:28.063Z,5.80
2018-12-01T08:59:00.487Z,5.70
2018-12-01T09:01:32.892Z,5.70
2018-12-01T09:04:05.501Z,5.70
2018-12-01T09:06:37.907Z,5.70
2018-12-01T09:09:11.432Z,5.70
2018-12-01T09:11:44.036Z,5.70
2018-12-01T09:14:16.708Z,5.70
2018-12-01T09:16:48.950Z,5.70
2018-12-01T09:19:21.173Z,6.00
2018-12-01T09:21:53.475Z,6.00
2018-12-01T09:24:25.931Z,6.00
2018-12-01T09:26:58.516Z,5.60
2018-12-01T09:29:31.055Z,5.80
2018-12-01T09:32:03.426Z,5.70
2018-12-01T09:34:35.906Z,5.70
2018-12-01T09:37:07.949Z,5.50
2018-12-01T09:39:40.267Z,5.60
2018-12-01T09:42:12.669Z,5.70
2018-12-01T09:44:44.838Z,5.70
2018-12-01T09:47:17.216Z,5.50
2018-12-01T09:49:50.066Z,5.60
2018-12-01T09:52:22.342Z,5.70
2018-12-01T09:54:55.020Z,5.80
2018-12-01T09:57:27.361Z,5.70
2018-12-01T09:59:59.720Z,5.50
2018-12-01T10:02:31.811Z,5.70
2018-12-01T10:05:04.293Z,5.60
2018-12-01T10:07:36.577Z,5.60
2018-12-01T10:10:12.088Z,5.70
2018-12-01T10:12:44.368Z,5.70
2018-12-01T10:15:20.338Z,5.90
2018-12-01T10:17:52.906Z,5.80
2018-12-01T10:20:28.357Z,5.70
2018-12-01T10:23:01.099Z,5.70
2018-12-01T10:25:33.616Z,5.70
2018-12-01T10:28:06.164Z,5.70
2018-12-01T10:30:38.552Z,5.70
2018-12-01T10:33:10.918Z,5.70
2018-12-01T10:35:43.356Z,5.50
2018-12-01T10:38:19.169Z,5.70
2018-12-01T10:40:51.849Z,5.70
2018-12-01T10:43:24.273Z,5.70
2018-12-01T10:45:56.761Z,5.70
2018-12-01T10:48:29.000Z,5.70
2018-12-01T10:51:01.544Z,5.50
2018-12-01T10:53:33.909Z,5.70
2018-12-01T10:56:06.565Z,5.70
2018-12-01T10:58:39.109Z,5.70
2018-12-01T11:01:16.076Z,5.50
2018-12-01T11:03:50.010Z,5.60
2018-12-01T11:06:22.604Z,5.40
2018-12-01T11:08:55.106Z,5.60
2018-12-01T11:11:27.547Z,5.40
2018-12-01T11:13:59.713Z,5.30
2018-12-01T11:16:32.176Z,5.30
2018-12-01T11:19:04.735Z,5.60
2018-12-01T11:21:37.440Z,5.40
2018-12-01T11:24:09.684Z,5.40
2018-12-01T11:26:42.086Z,5.50
2018-12-01T11:29:14.272Z,5.40
2018-12-01T11:31:46.520Z,5.30
2018-12-01T11:34:18.888Z,5.40
2018-12-01T11:36:51.412Z,5.40
2018-12-01T11:39:23.811Z,5.30
2018-12-01T11:41:56.195Z,5.40
2018-12-01T11:44:28.762Z,5.50
2018-12-01T11:47:01.306Z,5.40
2018-12-01T11:49:33.898Z,5.40
2018-12-01T11:52:06.540Z,5.40
2018-12-01T11:54:38.772Z,5.30
2018-12-01T11:57:11.333Z,5.40
2018-12-01T11:59:43.529Z,5.40
2018-12-01T12:02:16.179Z,5.40
2018-12-01T12:04:48.489Z,5.40
2018-12-01T12:07:30.084Z,5.40
2018-12-01T12:10:02.196Z,5.50
2018-12-01T12:12:34.598Z,5.40
2018-12-01T12:15:08.270Z,5.40
2018-12-01T12:17:40.709Z,5.60
2018-12-01T12:20:13.337Z,5.50
2018-12-01T12:22:45.934Z,5.70
2018-12-01T12:25:18.433Z,5.80
2018-12-01T12:27:50.882Z,5.70
2018-12-01T12:30:25.979Z,5.30
2018-12-01T12:32:56.214Z,5.60
2018-12-01T12:35:28.578Z,5.70
2018-12-01T12:38:01.031Z,5.70
2018-12-01T12:40:33.519Z,5.30
2018-12-01T12:43:05.935Z,5.60
2018-12-01T12:45:38.292Z,5.70
2018-12-01T12:48:10.934Z,5.50
2018-12-01T12:50:43.236Z,5.70
2018-12-01T12:53:15.552Z,5.70
2018-12-01T12:55:47.868Z,5.40
2018-12-01T12:58:20.205Z,5.50
2018-12-01T13:00:52.519Z,5.70
2018-12-01T13:03:25.263Z,5.70
2018-12-01T13:05:57.549Z,5.70
2018-12-01T13:08:30.044Z,5.50
2018-12-01T13:11:02.517Z,5.60
2018-12-01T13:13:34.650Z,5.50
2018-12-01T13:16:07.149Z,5.50
2018-12-01T13:18:39.301Z,5.50
2018-12-01T13:21:11.651Z,5.50
2018-12-01T13:23:44.647Z,5.50
2018-12-01T13:26:17.294Z,5.40
2018-12-01T13:28:49.398Z,5.50
2018-12-01T13:31:21.751Z,5.50
2018-12-01T13:33:53.928Z,5.50
2018-12-01T13:36:26.357Z,5.50
2018-12-01T13:38:58.599Z,5.50
2018-12-01T13:41:30.984Z,5.30
2018-12-01T13:44:03.325Z,5.50
2018-12-01T13:46:35.684Z,5.40
2018-12-01T13:49:07.834Z,5.50
2018-12-01T13:51:40.355Z,5.50
2018-12-01T13:54:12.767Z,5.70
2018-12-01T13:56:45.101Z,5.60
2018-12-01T13:59:17.189Z,5.40
2018-12-01T14:01:49.533Z,5.40
2018-12-01T14:04:21.662Z,5.40
2018-12-01T14:06:54.202Z,5.70
2018-12-01T14:09:26.856Z,5.70
2018-12-01T14:11:58.718Z,5.70
2018-12-01T14:14:32.198Z,5.60
2018-12-01T14:17:04.584Z,5.60
2018-12-01T14:19:37.531Z,5.60
2018-12-01T14:22:10.097Z,5.60
2018-12-01T14:24:42.518Z,5.70
2018-12-01T14:27:14.777Z,5.50
2018-12-01T14:29:47.535Z,5.70
2018-12-01T14:32:20.084Z,5.50
2018-12-01T14:34:52.554Z,5.80
2018-12-01T14:37:24.797Z,5.50
2018-12-01T14:39:56.964Z,5.70
2018-12-01T14:42:29.370Z,5.80
2018-12-01T14:45:01.542Z,5.70
2018-12-01T14:47:34.094Z,5.70
2018-12-01T14:50:07.717Z,5.70
2018-12-01T14:52:40.355Z,5.80
2018-12-01T14:55:13.507Z,5.70
2018-12-01T14:57:45.641Z,5.70
2018-12-01T15:00:25.336Z,5.80
2018-12-01T15:02:58.293Z,5.70
2018-12-01T15:05:30.714Z,5.80
2018-12-01T15:08:03.101Z,5.70
2018-12-01T15:10:35.594Z,6.00
2018-12-01T15:13:07.917Z,5.80
2018-12-01T15:15:40.343Z,5.70
2018-12-01T15:18:12.462Z,5.70
2018-12-01T15:20:44.900Z,5.80
2018-12-01T15:23:17.370Z,5.70
2018-12-01T15:25:49.820Z,5.90
2018-12-01T15:28:22.873Z,6.10
2018-12-01T15:30:56.075Z,6.00
2018-12-01T15:33:28.160Z,5.70
2018-12-01T15:36:00.047Z,5.80
2018-12-01T15:38:32.185Z,6.00
2018-12-01T15:41:04.771Z,6.00
2018-12-01T15:43:37.330Z,6.00
2018-12-01T15:46:09.488Z,6.00
2018-12-01T15:48:42.012Z,6.00
2018-12-01T15:51:14.979Z,5.70
2018-12-01T15:53:47.527Z,5.70
2018-12-01T15:56:19.949Z,5.70
2018-12-01T15:58:52.204Z,5.70
2018-12-01T16:01:24.486Z,5.70
2018-12-01T16:03:56.764Z,5.70
2018-12-01T16:06:28.943Z,5.70
2018-12-01T16:09:01.588Z,5.50
2018-12-01T16:11:34.876Z,5.70
2018-12-01T16:14:08.238Z,5.70
2018-12-01T16:16:41.004Z,5.80
2018-12-01T16:19:13.392Z,5.70
2018-12-01T16:21:46.942Z,5.70
2018-12-01T16:24:18.834Z,5.70
2018-12-01T16:26:51.194Z,5.70
2018-12-01T16:29:23.881Z,5.70
2018-12-01T16:31:56.932Z,5.70
2018-12-01T16:34:29.362Z,5.70
2018-12-01T16:37:01.843Z,5.80
2018-12-01T16:39:35.015Z,5.80
2018-12-01T16:42:08.462Z,5.70
2018-12-01T16:44:40.979Z,5.70
2018-12-01T16:47:13.393Z,5.70
2018-12-01T16:49:45.503Z,5.60
2018-12-01T16:52:17.804Z,5.70
2018-12-01T16:54:50.005Z,5.70
2018-12-01T16:57:22.519Z,5.70
2018-12-01T16:59:55.206Z,5.70
2018-12-01T17:02:27.792Z,5.60
2018-12-01T17:05:00.129Z,5.70
2018-12-01T17:07:32.602Z,5.70
2018-12-01T17:10:05.379Z,5.50
2018-12-01T17:12:38.295Z,5.70
2018-12-01T17:15:14.072Z,5.50
2018-12-01T17:17:46.757Z,5.60
2018-12-01T17:20:19.663Z,5.70
2018-12-01T17:22:56.872Z,5.80
2018-12-01T17:25:29.312Z,5.70
2018-12-01T17:28:02.199Z,5.60
2018-12-01T17:30:34.738Z,5.70
2018-12-01T17:33:07.775Z,5.70
2018-12-01T17:35:39.939Z,5.70
2018-12-01T17:38:13.505Z,5.70
2018-12-01T17:41:48.004Z,5.70
2018-12-01T17:44:20.421Z,5.70
2018-12-01T17:46:52.351Z,5.70
2018-12-01T17:49:24.350Z,5.50
2018-12-01T17:51:56.586Z,5.80
2018-12-01T17:54:28.974Z,6.00
2018-12-01T17:57:01.544Z,6.00
2018-12-01T17:59:33.736Z,6.10
2018-12-01T18:02:06.207Z,6.00
2018-12-01T18:04:38.527Z,6.00
2018-12-01T18:07:11.569Z,5.90
2018-12-01T18:09:43.668Z,6.30
2018-12-01T18:12:16.245Z,6.40
2018-12-01T18:14:48.674Z,6.30
2018-12-01T18:17:21.306Z,6.50
2018-12-01T18:19:53.520Z,6.30
2018-12-01T18:22:28.239Z,6.40
2018-12-01T18:25:00.667Z,6.50
2018-12-01T18:27:32.932Z,6.30
2018-12-01T18:30:05.135Z,6.40
2018-12-01T18:32:37.351Z,6.20
2018-12-01T18:35:11.437Z,6.70
2018-12-01T18:37:43.696Z,6.60
2018-12-01T18:40:17.566Z,6.70
2018-12-01T18:42:50.515Z,6.60
2018-12-01T18:45:24.136Z,6.70
2018-12-01T18:47:56.571Z,6.50
2018-12-01T18:50:28.806Z,6.70
2018-12-01T18:53:02.235Z,6.70
2018-12-01T18:55:35.510Z,6.70
2018-12-01T18:58:08.411Z,7.00
2018-12-01T19:00:45.593Z,7.00
2018-12-01T19:03:17.834Z,7.20
2018-12-01T19:05:50.097Z,7.00
2018-12-01T19:08:23.321Z,7.60
2018-12-01T19:10:55.884Z,7.40
2018-12-01T19:13:28.079Z,7.30
2018-12-01T19:16:00.658Z,7.40
2018-12-01T19:18:32.992Z,7.50
2018-12-01T19:21:05.369Z,7.40
2018-12-01T19:23:37.544Z,7.50
2018-12-01T19:26:10.311Z,7.60
2018-12-01T19:28:42.720Z,7.60
2018-12-01T19:31:15.965Z,7.40
2018-12-01T19:33:48.351Z,7.60
2018-12-01T19:36:20.610Z,7.30
2018-12-01T19:38:53.426Z,7.30
2018-12-01T19:41:26.545Z,7.50
2018-12-01T19:43:59.127Z,7.20
2018-12-01T19:46:31.977Z,7.30
2018-12-01T19:49:04.561Z,7.40
2018-12-01T19:51:37.589Z,7.50
2018-12-01T19:54:10.180Z,7.50
2018-12-01T19:56:42.382Z,7.40
2018-12-01T19:59:14.665Z,7.60
2018-12-01T20:01:46.643Z,7.30
2018-12-01T20:04:19.046Z,7.40
2018-12-01T20:06:51.393Z,7.30
2018-12-01T20:09:23.750Z,7.40
2018-12-01T20:11:56.164Z,7.30
2018-12-01T20:14:28.515Z,7.80
2018-12-01T20:23:49.048Z,7.40
2018-12-01T20:26:21.675Z,7.70
2018-12-01T20:28:53.914Z,7.70
2018-12-01T20:31:25.959Z,8.00
2018-12-01T20:33:59.785Z,8.00
2018-12-01T20:36:45.478Z,8.20
2018-12-01T20:39:30.539Z,8.00
2018-12-01T20:42:02.647Z,8.00
2018-12-01T20:44:35.137Z,7.70
2018-12-01T20:47:07.387Z,7.70
2018-12-01T20:49:39.542Z,7.90
2018-12-01T20:52:11.818Z,8.30
2018-12-01T20:54:46.971Z,8.20
2018-12-01T20:57:25.074Z,8.30
2018-12-01T20:59:57.787Z,8.20
2018-12-01T21:02:30.195Z,8.30
2018-12-01T21:05:02.996Z,8.60
2018-12-01T21:07:35.382Z,8.40
2018-12-01T21:10:09.844Z,8.50
2018-12-01T21:12:41.939Z,8.40
2018-12-01T21:15:14.940Z,8.40
2018-12-01T21:17:47.411Z,8.40
2018-12-01T21:20:20.518Z,8.30
2018-12-01T21:22:53.285Z,8.40
2018-12-01T21:25:27.260Z,8.60
2018-12-01T21:28:01.954Z,8.20
2018-12-01T21:30:34.602Z,8.60
2018-12-01T21:33:12.013Z,8.60
2018-12-01T21:35:44.388Z,8.50
2018-12-01T21:38:17.786Z,8.70
2018-12-01T21:40:50.123Z,8.60
2018-12-01T21:43:22.599Z,9.00
2018-12-01T21:45:54.768Z,9.00
2018-12-01T21:48:27.156Z,9.10
2018-12-01T21:50:59.532Z,8.90
2018-12-01T21:53:32.275Z,8.90
2018-12-01T21:56:04.831Z,9.00
2018-12-01T21:58:36.935Z,9.00
2018-12-01T22:01:09.573Z,9.10
2018-12-01T22:03:42.070Z,8.90
2018-12-01T22:06:14.543Z,8.60
2018-12-01T22:08:47.364Z,9.00
2018-12-01T22:11:19.938Z,8.80
2018-12-01T22:13:52.295Z,8.70
2018-12-01T22:16:24.882Z,8.80
2018-12-01T22:18:57.383Z,8.60
2018-12-01T22:21:30.156Z,8.70
2018-12-01T22:24:02.394Z,8.80
2018-12-01T22:26:34.976Z,8.60
2018-12-01T22:29:07.568Z,8.70
2018-12-01T22:31:39.760Z,8.80
2018-12-01T22:34:12.274Z,8.60
2018-12-01T22:36:44.063Z,8.60
2018-12-01T22:39:16.149Z,8.70
2018-12-01T22:41:48.391Z,8.50
2018-12-01T22:44:20.971Z,8.50
2018-12-01T22:46:53.554Z,8.60
2018-12-01T22:49:25.920Z,8.50
2018-12-01T22:51:58.123Z,8.70
2018-12-01T22:54:30.238Z,8.20
2018-12-01T22:57:02.631Z,8.30
2018-12-01T22:59:34.786Z,8.30
2018-12-01T23:02:06.953Z,8.60
2018-12-01T23:04:39.022Z,8.60
2018-12-01T23:07:11.439Z,8.30
2018-12-01T23:09:43.730Z,8.30
2018-12-01T23:12:15.914Z,8.30
2018-12-01T23:14:48.333Z,8.30
2018-12-01T23:17:20.923Z,8.20
2018-12-01T23:19:52.689Z,8.00
2018-12-01T23:22:24.443Z,7.90
2018-12-01T23:24:56.774Z,8.20
2018-12-01T23:27:29.722Z,8.30
2018-12-01T23:30:02.965Z,8.30
2018-12-01T23:32:35.061Z,8.20
2018-12-01T23:35:07.542Z,8.00
2018-12-01T23:37:39.976Z,7.70
2018-12-01T23:40:14.605Z,7.80
2018-12-01T23:42:50.669Z,7.90
2018-12-01T23:45:23.353Z,8.30
2018-12-01T23:47:55.756Z,7.90
2018-12-01T23:50:28.924Z,8.00
2018-12-01T23:53:02.409Z,8.00
2018-12-01T23:55:34.741Z,8.20
2018-12-01T23:58:07.121Z,7.70
